createdAt,value
2018-02-19T00:02:04.244Z,56.80
2018-02-19T00:04:32.214Z,56.30
2018-02-19T00:07:00.604Z,57.40
2018-02-19T00:09:28.614Z,56.10
2018-02-19T00:11:56.204Z,55.80
2018-02-19T00:14:24.081Z,55.60
2018-02-19T00:16:51.653Z,55.50
2018-02-19T00:19:19.811Z,55.60
2018-02-19T00:21:47.566Z,55.70
2018-02-19T00:24:16.120Z,56.70
2018-02-19T00:26:45.011Z,55.80
2018-02-19T00:29:12.659Z,55.80
2018-02-19T00:31:41.473Z,56.40
2018-02-19T00:34:09.079Z,55.70
2018-02-19T00:36:36.671Z,55.50
2018-02-19T00:39:05.625Z,55.80
2018-02-19T00:41:33.246Z,56.00
2018-02-19T00:44:01.720Z,55.80
2018-02-19T00:46:29.402Z,56.40
2018-02-19T00:48:57.014Z,56.10
2018-02-19T00:51:24.616Z,56.20
2018-02-19T00:53:52.188Z,56.00
2018-02-19T00:56:19.783Z,56.00
2018-02-19T00:58:47.410Z,56.40
2018-02-19T01:01:15.004Z,55.10
2018-02-19T01:03:43.188Z,55.50
2018-02-19T01:06:11.115Z,56.00
2018-02-19T01:08:40.145Z,56.10
2018-02-19T01:11:07.858Z,55.80
2018-02-19T01:13:35.423Z,55.60
2018-02-19T01:16:03.029Z,55.10
2018-02-19T01:18:30.596Z,55.30
2018-02-19T01:20:58.207Z,55.20
2018-02-19T01:23:26.899Z,54.80
2018-02-19T01:25:55.420Z,55.10
2018-02-19T01:28:22.998Z,55.40
2018-02-19T01:30:51.365Z,55.90
2018-02-19T01:33:23.710Z,56.00
2018-02-19T01:35:51.707Z,55.10
2018-02-19T01:38:20.076Z,55.70
2018-02-19T01:40:49.055Z,54.80
2018-02-19T01:43:16.793Z,54.90
2018-02-19T01:45:44.402Z,55.00
2018-02-19T01:48:12.373Z,54.70
2018-02-19T01:50:40.389Z,54.50
2018-02-19T01:53:07.978Z,54.40
2018-02-19T01:55:36.861Z,54.60
2018-02-19T01:58:04.938Z,54.60
2018-02-19T02:00:32.632Z,54.50
2018-02-19T02:03:01.005Z,54.80
2018-02-19T02:05:28.896Z,54.50
2018-02-19T02:07:57.422Z,54.40
2018-02-19T02:10:25.025Z,54.50
2018-02-19T02:12:53.392Z,54.70
2018-02-19T02:15:20.976Z,54.30
2018-02-19T02:17:49.578Z,53.60
2018-02-19T02:20:17.174Z,53.40
2018-02-19T02:22:45.198Z,53.50
2018-02-19T02:25:12.784Z,53.30
2018-02-19T02:27:40.472Z,53.30
2018-02-19T02:30:09.214Z,53.50
2018-02-19T02:32:37.382Z,53.60
2018-02-19T02:35:04.974Z,53.70
2018-02-19T02:37:32.580Z,54.00
2018-02-19T02:40:00.921Z,54.40
2018-02-19T02:42:28.524Z,54.20
2018-02-19T02:44:56.664Z,53.50
2018-02-19T02:47:24.788Z,54.30
2018-02-19T02:49:53.069Z,54.20
2018-02-19T02:52:21.074Z,53.90
2018-02-19T02:54:48.653Z,54.20
2018-02-19T02:57:16.268Z,53.80
2018-02-19T02:59:45.518Z,53.30
2018-02-19T03:02:13.118Z,53.80
2018-02-19T03:04:40.727Z,54.20
2018-02-19T03:07:09.130Z,53.80
2018-02-19T03:09:36.712Z,53.90
2018-02-19T03:12:04.345Z,53.60
2018-02-19T03:14:31.914Z,53.80
2018-02-19T03:16:59.629Z,54.10
2018-02-19T03:19:27.613Z,54.40
2018-02-19T03:21:57.356Z,54.20
2018-02-19T03:24:25.074Z,54.20
2018-02-19T03:26:52.866Z,53.50
2018-02-19T03:29:22.382Z,54.40
2018-02-19T03:31:49.968Z,54.00
2018-02-19T03:34:17.576Z,54.40
2018-02-19T03:36:45.929Z,54.90
2018-02-19T03:39:13.661Z,55.10
2018-02-19T03:41:43.149Z,55.50
2018-02-19T03:44:11.722Z,55.40
2018-02-19T03:46:40.056Z,55.80
2018-02-19T03:49:07.651Z,55.80
2018-02-19T03:51:36.667Z,55.40
2018-02-19T03:54:04.328Z,55.00
2018-02-19T03:56:31.916Z,54.50
2018-02-19T03:58:59.530Z,54.90
2018-02-19T04:01:27.503Z,54.20
2018-02-19T04:03:55.132Z,54.30
2018-02-19T04:06:23.474Z,54.80
2018-02-19T04:08:51.086Z,54.20
2018-02-19T04:11:19.976Z,53.70
2018-02-19T04:13:47.684Z,53.80
2018-02-19T04:16:15.426Z,53.60
2018-02-19T04:18:43.034Z,53.60
2018-02-19T04:21:12.254Z,53.70
2018-02-19T04:23:41.325Z,53.20
2018-02-19T04:26:10.091Z,53.70
2018-02-19T04:28:37.850Z,53.30
2018-02-19T04:31:05.442Z,53.20
2018-02-19T04:33:33.410Z,53.20
2018-02-19T04:36:01.548Z,53.70
2018-02-19T04:38:29.267Z,52.70
2018-02-19T04:40:56.852Z,52.80
2018-02-19T04:43:25.670Z,53.40
2018-02-19T04:45:53.257Z,53.40
2018-02-19T04:48:20.868Z,52.80
2018-02-19T04:50:48.478Z,53.50
2018-02-19T04:53:16.262Z,53.40
2018-02-19T04:55:43.880Z,53.90
2018-02-19T04:58:11.840Z,53.80
2018-02-19T05:00:39.822Z,54.00
2018-02-19T05:03:08.277Z,54.40
2018-02-19T05:05:37.020Z,53.90
2018-02-19T05:08:04.692Z,54.40
2018-02-19T05:10:32.337Z,54.00
2018-02-19T05:13:00.357Z,53.70
2018-02-19T05:15:28.930Z,54.00
2018-02-19T05:17:56.718Z,54.40
2018-02-19T05:20:24.348Z,53.90
2018-02-19T05:22:51.968Z,53.70
2018-02-19T05:25:22.542Z,53.60
2018-02-19T05:27:50.258Z,53.40
2018-02-19T05:30:18.147Z,53.80
2018-02-19T05:32:45.728Z,54.50
2018-02-19T05:35:13.407Z,52.90
2018-02-19T05:37:42.598Z,52.80
2018-02-19T05:40:10.240Z,52.90
2018-02-19T05:42:37.868Z,52.90
2018-02-19T05:45:06.280Z,53.50
2018-02-19T05:47:35.668Z,52.50
2018-02-19T05:50:03.288Z,52.80
2018-02-19T05:52:30.856Z,52.60
2018-02-19T05:54:58.481Z,53.10
2018-02-19T05:57:26.283Z,53.00
2018-02-19T05:59:58.094Z,53.60
2018-02-19T06:02:25.743Z,52.90
2018-02-19T06:04:53.404Z,53.30
2018-02-19T06:07:20.999Z,53.30
2018-02-19T06:09:48.584Z,53.60
2018-02-19T06:12:16.208Z,53.20
2018-02-19T06:14:43.772Z,53.00
2018-02-19T06:17:11.624Z,53.10
2018-02-19T06:19:39.219Z,53.00
2018-02-19T06:22:07.904Z,52.80
2018-02-19T06:24:35.537Z,52.70
2018-02-19T06:27:03.927Z,52.40
2018-02-19T06:29:32.631Z,52.80
2018-02-19T06:32:00.652Z,53.00
2018-02-19T06:34:28.885Z,52.70
2018-02-19T06:36:56.555Z,52.90
2018-02-19T06:39:24.166Z,53.50
2018-02-19T06:41:53.746Z,53.50
2018-02-19T06:44:21.845Z,53.80
2018-02-19T06:46:49.440Z,53.40
2018-02-19T06:49:17.021Z,53.50
2018-02-19T06:51:45.833Z,53.20
2018-02-19T06:54:14.264Z,53.40
2018-02-19T06:56:42.273Z,52.70
2018-02-19T06:59:09.845Z,53.60
2018-02-19T07:01:37.447Z,54.00
2018-02-19T07:04:05.040Z,77.70
2018-02-19T07:06:34.035Z,52.40
2018-02-19T07:09:02.179Z,49.00
2018-02-19T07:11:29.929Z,47.70
2018-02-19T07:13:57.505Z,46.10
2018-02-19T07:16:25.171Z,45.50
2018-02-19T07:18:52.801Z,44.80
2018-02-19T07:21:21.420Z,44.60
2018-02-19T07:23:49.672Z,44.50
2018-02-19T07:26:17.498Z,44.50
2018-02-19T07:28:45.675Z,44.10
2018-02-19T07:31:13.254Z,43.60
2018-02-19T07:33:41.626Z,44.60
2018-02-19T07:36:09.188Z,43.70
2018-02-19T07:38:37.552Z,43.40
2018-02-19T07:41:05.129Z,43.70
2018-02-19T07:43:33.769Z,44.50
2018-02-19T07:46:02.098Z,45.40
2018-02-19T07:48:30.453Z,46.30
2018-02-19T07:50:59.752Z,47.20
2018-02-19T07:53:29.026Z,47.80
2018-02-19T07:55:57.523Z,48.50
2018-02-19T07:58:26.184Z,48.30
2018-02-19T08:00:54.118Z,48.10
2018-02-19T08:03:22.108Z,48.80
2018-02-19T08:05:50.460Z,49.00
2018-02-19T08:08:18.812Z,48.50
2018-02-19T08:10:46.785Z,48.60
2018-02-19T08:13:15.978Z,48.40
2018-02-19T08:15:45.243Z,48.60
2018-02-19T08:18:13.225Z,49.20
2018-02-19T08:20:41.583Z,48.40
2018-02-19T08:23:09.963Z,50.10
2018-02-19T08:25:39.525Z,50.50
2018-02-19T08:28:08.187Z,50.90
2018-02-19T08:30:36.611Z,50.70
2018-02-19T08:33:04.978Z,51.00
2018-02-19T08:35:33.333Z,50.80
2018-02-19T08:38:02.404Z,51.20
2018-02-19T08:40:29.982Z,50.40
2018-02-19T08:42:58.486Z,50.20
2018-02-19T08:45:27.968Z,50.60
2018-02-19T08:47:56.387Z,50.60
2018-02-19T08:50:24.392Z,51.10
2018-02-19T08:52:52.384Z,51.20
2018-02-19T08:55:21.168Z,51.20
2018-02-19T08:57:48.741Z,50.50
2018-02-19T09:00:16.711Z,50.30
2018-02-19T09:02:45.065Z,50.40
2018-02-19T09:05:13.841Z,49.70
2018-02-19T09:07:42.084Z,51.60
2018-02-19T09:10:10.298Z,52.30
2018-02-19T09:12:38.690Z,52.70
2018-02-19T09:15:07.040Z,51.60
2018-02-19T09:17:34.990Z,52.40
2018-02-19T09:20:02.577Z,53.70
2018-02-19T09:22:30.552Z,54.10
2018-02-19T09:24:59.283Z,54.00
2018-02-19T09:27:27.873Z,54.10
2018-02-19T09:29:56.091Z,53.30
2018-02-19T09:32:23.816Z,52.30
2018-02-19T09:34:52.917Z,53.50
2018-02-19T09:37:21.039Z,51.90
2018-02-19T09:39:50.118Z,52.50
2018-02-19T09:42:17.809Z,53.30
2018-02-19T09:44:45.764Z,57.10
2018-02-19T09:47:14.111Z,54.40
2018-02-19T09:49:42.467Z,54.60
2018-02-19T09:52:10.816Z,53.80
2018-02-19T09:54:39.161Z,53.40
2018-02-19T09:57:08.437Z,53.90
2018-02-19T09:59:37.367Z,55.20
2018-02-19T10:02:05.357Z,53.40
2018-02-19T10:04:33.696Z,52.50
2018-02-19T10:07:02.210Z,52.10
2018-02-19T10:09:30.779Z,51.40
2018-02-19T10:11:59.444Z,50.70
2018-02-19T10:14:27.763Z,50.70
2018-02-19T10:16:55.355Z,50.40
2018-02-19T10:19:22.930Z,49.40
2018-02-19T10:21:50.911Z,48.80
2018-02-19T10:24:19.246Z,48.40
2018-02-19T10:26:47.606Z,49.20
2018-02-19T10:29:16.781Z,49.50
2018-02-19T10:31:45.696Z,49.90
2018-02-19T10:34:13.656Z,48.80
2018-02-19T10:36:41.236Z,48.40
2018-02-19T10:39:09.452Z,48.60
2018-02-19T10:41:38.125Z,49.00
2018-02-19T10:44:05.818Z,48.60
2018-02-19T10:46:33.393Z,48.10
2018-02-19T10:49:00.969Z,48.80
2018-02-19T10:51:29.876Z,49.20
2018-02-19T10:53:58.164Z,48.60
2018-02-19T10:56:26.386Z,49.30
2018-02-19T10:58:54.733Z,50.10
2018-02-19T11:01:23.087Z,50.20
2018-02-19T11:03:52.161Z,51.70
2018-02-19T11:06:20.752Z,51.80
2018-02-19T11:08:49.109Z,51.80
2018-02-19T11:11:17.448Z,53.00
2018-02-19T11:13:45.032Z,52.20
2018-02-19T11:16:12.994Z,51.80
2018-02-19T11:18:40.571Z,51.60
2018-02-19T11:21:08.528Z,51.00
2018-02-19T11:23:37.239Z,50.60
2018-02-19T11:26:05.251Z,49.30
2018-02-19T11:28:34.044Z,49.20
2018-02-19T11:31:02.030Z,49.90
2018-02-19T11:33:30.388Z,49.70
2018-02-19T11:35:58.697Z,50.20
2018-02-19T11:38:27.085Z,50.20
2018-02-19T11:40:55.901Z,50.10
2018-02-19T11:43:24.192Z,50.40
2018-02-19T11:45:52.163Z,50.20
2018-02-19T11:48:20.239Z,49.60
2018-02-19T11:50:47.801Z,48.90
2018-02-19T11:53:15.779Z,48.10
2018-02-19T11:55:44.247Z,47.40
2018-02-19T11:58:12.534Z,48.10
2018-02-19T12:00:41.206Z,47.90
2018-02-19T12:03:09.185Z,46.90
2018-02-19T12:05:37.986Z,47.30
2018-02-19T12:08:05.961Z,47.50
2018-02-19T12:10:34.314Z,47.50
2018-02-19T12:13:02.676Z,48.00
2018-02-19T12:15:31.039Z,47.40
2018-02-19T12:17:59.487Z,47.50
2018-02-19T12:20:28.087Z,47.80
2018-02-19T12:22:56.139Z,48.20
2018-02-19T12:25:25.222Z,48.30
2018-02-19T12:27:54.361Z,48.60
2018-02-19T12:30:22.711Z,52.10
2018-02-19T12:32:51.058Z,50.00
2018-02-19T12:35:19.637Z,49.30
2018-02-19T12:37:48.201Z,48.90
2018-02-19T12:40:16.015Z,49.30
2018-02-19T12:42:44.364Z,48.70
2018-02-19T12:45:12.711Z,47.30
2018-02-19T12:47:41.339Z,47.50
2018-02-19T12:50:09.765Z,47.70
2018-02-19T12:52:38.869Z,48.10
2018-02-19T12:55:07.239Z,47.00
2018-02-19T12:57:34.831Z,47.00
2018-02-19T13:00:02.871Z,46.90
2018-02-19T13:02:32.968Z,47.60
2018-02-19T13:05:12.440Z,47.50
2018-02-19T13:07:40.129Z,47.00
2018-02-19T13:10:08.475Z,46.90
2018-02-19T13:12:37.388Z,47.40
2018-02-19T13:15:05.385Z,46.90
2018-02-19T13:17:34.028Z,47.00
2018-02-19T13:20:02.605Z,46.70
2018-02-19T13:22:30.564Z,46.70
2018-02-19T13:24:58.544Z,47.00
2018-02-19T13:27:27.268Z,47.50
2018-02-19T13:29:55.994Z,48.00
2018-02-19T13:32:23.669Z,46.20
2018-02-19T13:34:51.729Z,46.50
2018-02-19T13:37:19.312Z,46.10
2018-02-19T13:39:47.325Z,47.00
2018-02-19T13:42:15.707Z,47.30
2018-02-19T13:44:44.066Z,47.10
2018-02-19T13:47:12.392Z,47.40
2018-02-19T13:49:40.864Z,46.90
2018-02-19T13:52:08.913Z,47.40
2018-02-19T13:54:37.002Z,47.20
2018-02-19T13:57:04.596Z,47.60
2018-02-19T13:59:32.603Z,49.50
2018-02-19T14:02:00.180Z,49.70
2018-02-19T14:04:29.427Z,49.90
2018-02-19T14:06:57.527Z,49.20
2018-02-19T14:09:25.276Z,48.80
2018-02-19T14:11:53.341Z,48.80
2018-02-19T14:14:21.324Z,48.30
2018-02-19T14:16:49.674Z,47.80
2018-02-19T14:19:17.297Z,48.60
2018-02-19T14:21:45.252Z,48.20
2018-02-19T14:24:13.630Z,48.10
2018-02-19T14:26:42.108Z,48.60
2018-02-19T14:29:10.179Z,49.40
2018-02-19T14:31:38.528Z,49.30
2018-02-19T14:34:06.104Z,49.30
2018-02-19T14:36:34.443Z,50.10
2018-02-19T14:39:02.107Z,49.50
2018-02-19T14:41:31.126Z,49.70
2018-02-19T14:43:59.061Z,50.10
2018-02-19T14:46:27.438Z,49.90
2018-02-19T14:48:55.769Z,50.00
2018-02-19T14:51:24.176Z,49.90
2018-02-19T14:53:52.460Z,50.10
2018-02-19T14:56:20.912Z,50.30
2018-02-19T14:58:50.608Z,50.20
2018-02-19T15:01:18.678Z,50.00
2018-02-19T15:03:47.919Z,49.60
2018-02-19T15:06:16.328Z,50.40
2018-02-19T15:08:43.916Z,50.20
2018-02-19T15:11:12.295Z,50.40
2018-02-19T15:13:40.728Z,50.20
2018-02-19T15:16:09.237Z,50.20
2018-02-19T15:18:37.267Z,50.00
2018-02-19T15:21:06.616Z,49.80
2018-02-19T15:23:35.013Z,50.80
2018-02-19T15:26:02.629Z,50.80
2018-02-19T15:28:30.601Z,50.90
2018-02-19T15:30:59.755Z,51.30
2018-02-19T15:33:28.150Z,50.90
2018-02-19T15:35:56.757Z,51.50
2018-02-19T15:38:24.340Z,50.80
2018-02-19T15:40:52.331Z,51.00
2018-02-19T15:43:20.309Z,50.10
2018-02-19T15:45:47.922Z,51.40
2018-02-19T15:48:16.257Z,51.50
2018-02-19T15:50:44.573Z,51.40
2018-02-19T15:53:12.952Z,51.10
2018-02-19T15:55:41.455Z,51.00
2018-02-19T15:58:09.714Z,51.80
2018-02-19T16:00:38.058Z,52.10
2018-02-19T16:03:06.400Z,52.20
2018-02-19T16:05:36.292Z,52.00
2018-02-19T16:08:04.316Z,52.00
2018-02-19T16:10:32.309Z,51.80
2018-02-19T16:12:59.877Z,51.70
2018-02-19T16:15:27.841Z,51.30
2018-02-19T16:17:56.530Z,51.70
2018-02-19T16:20:24.523Z,51.90
2018-02-19T16:22:53.240Z,51.50
2018-02-19T16:25:21.666Z,51.50
2018-02-19T16:27:49.688Z,51.90
2018-02-19T16:30:17.682Z,49.50
2018-02-19T16:32:46.101Z,52.50
2018-02-19T16:35:13.690Z,52.00
2018-02-19T16:37:43.215Z,52.10
2018-02-19T16:40:12.568Z,52.10
2018-02-19T16:42:40.511Z,52.00
2018-02-19T16:45:08.901Z,52.30
2018-02-19T16:47:36.903Z,52.60
2018-02-19T16:50:05.428Z,52.70
2018-02-19T16:52:33.014Z,53.40
2018-02-19T16:55:02.095Z,54.80
2018-02-19T16:57:29.967Z,54.70
2018-02-19T16:59:58.623Z,54.90
2018-02-19T17:02:27.921Z,54.80
2018-02-19T17:04:56.330Z,54.10
2018-02-19T17:07:24.760Z,53.80
2018-02-19T17:09:53.071Z,53.60
2018-02-19T17:12:21.448Z,53.90
2018-02-19T17:14:49.775Z,53.70
2018-02-19T17:17:17.761Z,53.20
2018-02-19T17:19:45.736Z,52.90
2018-02-19T17:22:13.351Z,53.10
2018-02-19T17:24:42.425Z,53.20
2018-02-19T17:27:10.196Z,52.60
2018-02-19T17:29:38.540Z,53.10
2018-02-19T17:32:06.898Z,52.90
2018-02-19T17:34:35.222Z,53.40
2018-02-19T17:37:03.571Z,53.30
2018-02-19T17:39:31.589Z,53.50
2018-02-19T17:41:59.944Z,53.80
2018-02-19T17:44:27.957Z,53.70
2018-02-19T17:46:55.547Z,53.20
2018-02-19T17:49:23.515Z,53.10
2018-02-19T17:51:51.124Z,53.00
2018-02-19T17:54:19.088Z,52.70
2018-02-19T17:56:47.452Z,52.90
2018-02-19T17:59:15.806Z,52.90
2018-02-19T18:01:44.410Z,52.90
2018-02-19T18:04:12.403Z,52.90
2018-02-19T18:06:40.768Z,53.10
2018-02-19T18:09:09.120Z,53.30
2018-02-19T18:11:37.503Z,53.90
2018-02-19T18:14:05.786Z,54.80
2018-02-19T18:16:34.787Z,55.20
2018-02-19T18:19:02.764Z,54.60
2018-02-19T18:21:30.764Z,55.00
2018-02-19T18:23:58.765Z,55.50
2018-02-19T18:26:27.089Z,56.00
2018-02-19T18:28:55.086Z,55.30
2018-02-19T18:31:23.051Z,55.30
2018-02-19T18:33:51.334Z,54.60
2018-02-19T18:36:19.524Z,55.00
2018-02-19T18:38:47.976Z,55.90
2018-02-19T18:41:18.095Z,55.90
2018-02-19T18:43:46.201Z,56.40
2018-02-19T18:46:14.615Z,55.90
2018-02-19T18:48:43.292Z,55.80
2018-02-19T18:51:10.953Z,55.70
2018-02-19T18:53:38.949Z,55.30
2018-02-19T18:56:07.228Z,54.80
2018-02-19T18:58:35.786Z,54.90
2018-02-19T19:01:03.359Z,54.60
2018-02-19T19:03:31.392Z,54.40
2018-02-19T19:06:00.678Z,53.80
2018-02-19T19:08:40.247Z,53.40
2018-02-19T19:11:08.765Z,53.40
2018-02-19T19:13:37.187Z,54.50
2018-02-19T19:16:05.541Z,55.20
2018-02-19T19:18:33.558Z,54.80
2018-02-19T19:21:01.331Z,54.80
2018-02-19T19:23:30.383Z,55.00
2018-02-19T19:25:58.220Z,54.90
2018-02-19T19:28:26.952Z,54.70
2018-02-19T19:30:55.105Z,54.20
2018-02-19T19:33:22.783Z,54.40
2018-02-19T19:35:51.290Z,54.40
2018-02-19T19:38:19.982Z,54.30
2018-02-19T19:40:48.693Z,54.00
2018-02-19T19:43:16.306Z,54.20
2018-02-19T19:45:44.304Z,54.40
2018-02-19T19:48:12.672Z,54.40
2018-02-19T19:50:41.029Z,54.30
2018-02-19T19:53:09.465Z,54.60
2018-02-19T19:55:37.977Z,55.20
2018-02-19T19:58:06.554Z,54.50
2018-02-19T20:00:34.550Z,54.50
2018-02-19T20:03:03.573Z,54.60
2018-02-19T20:05:31.939Z,54.80
2018-02-19T20:07:59.587Z,54.20
2018-02-19T20:10:27.573Z,54.60
2018-02-19T20:12:56.992Z,55.50
2018-02-19T20:15:25.494Z,54.90
2018-02-19T20:17:53.204Z,54.70
2018-02-19T20:20:21.183Z,54.60
2018-02-19T20:25:33.293Z,55.20
2018-02-19T20:28:01.272Z,54.60
2018-02-19T20:30:28.879Z,54.50
2018-02-19T20:32:56.875Z,54.60
2018-02-19T20:35:24.616Z,55.10
2018-02-19T20:37:53.517Z,55.00
2018-02-19T20:40:21.326Z,54.90
2018-02-19T20:42:48.908Z,55.10
2018-02-19T20:45:17.271Z,54.90
2018-02-19T20:47:46.354Z,55.30
2018-02-19T20:50:13.941Z,54.70
2018-02-19T20:52:41.527Z,54.40
2018-02-19T20:55:10.427Z,54.70
2018-02-19T20:57:38.011Z,54.80
2018-02-19T21:00:06.011Z,55.00
2018-02-19T21:02:35.011Z,55.10
2018-02-19T21:05:03.519Z,55.70
2018-02-19T21:07:31.225Z,55.30
2018-02-19T21:09:59.606Z,55.30
2018-02-19T21:12:27.573Z,55.00
2018-02-19T21:14:55.160Z,55.20
2018-02-19T21:17:23.145Z,55.30
2018-02-19T21:19:51.506Z,55.70
2018-02-19T21:22:20.745Z,55.50
2018-02-19T21:24:48.590Z,55.70
2018-02-19T21:27:16.609Z,55.80
2018-02-19T21:29:45.207Z,55.70
2018-02-19T21:32:14.026Z,55.30
2018-02-19T21:34:42.702Z,55.30
2018-02-19T21:37:11.109Z,55.20
2018-02-19T21:39:38.743Z,55.10
2018-02-19T21:42:07.084Z,55.00
2018-02-19T21:44:35.520Z,54.80
2018-02-19T21:47:04.603Z,55.30
2018-02-19T21:49:32.189Z,55.30
2018-02-19T21:52:00.503Z,55.30
2018-02-19T21:54:29.010Z,55.10
2018-02-19T21:56:57.069Z,55.10
2018-02-19T21:59:25.454Z,55.30
2018-02-19T22:01:53.831Z,55.30
2018-02-19T22:04:23.903Z,55.80
2018-02-19T22:06:53.058Z,55.70
2018-02-19T22:09:21.060Z,55.70
2018-02-19T22:11:48.656Z,55.90
2018-02-19T22:14:17.044Z,56.10
2018-02-19T22:16:45.364Z,56.20
2018-02-19T22:19:13.672Z,56.30
2018-02-19T22:21:41.740Z,56.10
2018-02-19T22:24:10.321Z,56.30
2018-02-19T22:26:38.982Z,55.90
2018-02-19T22:29:07.980Z,55.80
2018-02-19T22:31:35.830Z,55.90
2018-02-19T22:34:03.821Z,56.00
2018-02-19T22:36:31.845Z,56.10
2018-02-19T22:38:59.525Z,56.00
2018-02-19T22:41:27.618Z,56.10
2018-02-19T22:43:55.956Z,56.00
2018-02-19T22:46:24.393Z,56.00
2018-02-19T22:48:52.388Z,56.20
2018-02-19T22:51:19.996Z,56.10
2018-02-19T22:53:47.977Z,56.20
2018-02-19T22:56:16.393Z,56.50
2018-02-19T22:58:44.973Z,56.70
2018-02-19T23:01:13.033Z,56.50
2018-02-19T23:03:41.419Z,56.60
2018-02-19T23:06:09.797Z,56.60
2018-02-19T23:08:38.492Z,56.60
2018-02-19T23:11:06.946Z,57.50
2018-02-19T23:13:34.928Z,57.40
2018-02-19T23:16:02.994Z,57.10
2018-02-19T23:18:30.580Z,57.00
2018-02-19T23:20:58.390Z,56.70
2018-02-19T23:23:26.510Z,56.80
2018-02-19T23:25:54.135Z,56.70
2018-02-19T23:28:22.613Z,56.40
2018-02-19T23:30:50.421Z,56.70
2018-02-19T23:33:19.003Z,56.60
2018-02-19T23:35:47.064Z,56.50
2018-02-19T23:38:15.682Z,56.30
2018-02-19T23:40:43.746Z,56.40
2018-02-19T23:43:11.912Z,56.50
2018-02-19T23:45:39.867Z,57.20
2018-02-19T23:48:07.837Z,57.10
2018-02-19T23:50:35.957Z,57.40
2018-02-19T23:53:03.936Z,56.90
2018-02-19T23:55:31.651Z,56.50
2018-02-19T23:57:59.618Z,56.30
